Ana Sayfa
METAR-TAF:

METAR-TAF

Havaalanları :

New Braunfels Municipal Airport

New Braunfels, Teksas, Amerika Birleşik Devletleri

Enlem: 29-42-31N, Boylam: 098-02-43W, yükseklik: 197 m

Güncel hava durumu gözlemi

Rapor saat 23:51 UTC de 1 saat ve 1 dakika önce yapıldı.
Rüzgar güneydan 12 kt
Sıcaklık 35°C
Nem 47%
Basınç 1006 hPa
Görüş mesafesi: 16.1 km
Açık gökyüzü

METAR: KBAZ 192351Z AUTO 17012KT 10SM CLR 35/22 A2971 RMK AO2 SLP051 T03500217 10361 20333 56019

Saat: 19:52 (00:52 UTC)


TAF: eksik

4.000'den fazla havaalanı için hava durumu gözlemleri ve tahminleri (METAR ve TAF raporları).

Kullanılabilir istasyonlar harita üzerinde sarı ve kırmızı noktalarla gösterilir.

İstasyonun adını görmek için fareyi noktanın üzerinde gezdirin.

Sonrasında hava gözlem ve tahminlerini görmek için tıklayın.

Haritayı değiştirmek için: yaklaştırmak için siyah artı işaretli yeşil düğmeye ve uzaklaştırmak için de eksi işaretli düğmeye hızla tıklayın; bitişik haritalar için yeşil okları kullanın.


METAR-TAF: